sensor_id;sensor_type;location;lat;lon;timestamp;pressure;altitude;pressure_sealevel;temperature;humidity
59190;BME280;50749;51.636;4.948;2023-12-20T00:01:05;101720.50;;;16.16;56.20
59190;BME280;50749;51.636;4.948;2023-12-20T00:03:41;101722.94;;;16.18;56.10
59190;BME280;50749;51.636;4.948;2023-12-20T00:06:07;101715.00;;;16.16;55.78
59190;BME280;50749;51.636;4.948;2023-12-20T00:08:33;101718.06;;;16.14;55.77
59190;BME280;50749;51.636;4.948;2023-12-20T00:10:59;101710.13;;;16.13;55.78
59190;BME280;50749;51.636;4.948;2023-12-20T00:13:24;101692.63;;;16.09;55.57
59190;BME280;50749;51.636;4.948;2023-12-20T00:15:50;101698.13;;;16.09;55.49
59190;BME280;50749;51.636;4.948;2023-12-20T00:18:16;101700.38;;;16.07;55.37
59190;BME280;50749;51.636;4.948;2023-12-20T00:20:42;101705.09;;;16.06;55.88
59190;BME280;50749;51.636;4.948;2023-12-20T00:23:07;101710.44;;;16.03;55.35
59190;BME280;50749;51.636;4.948;2023-12-20T00:25:34;101711.56;;;16.02;55.37
59190;BME280;50749;51.636;4.948;2023-12-20T00:28:00;101706.69;;;15.98;55.49
59190;BME280;50749;51.636;4.948;2023-12-20T00:30:26;101705.56;;;16.00;55.12
59190;BME280;50749;51.636;4.948;2023-12-20T00:32:52;101713.38;;;15.97;55.19
59190;BME280;50749;51.636;4.948;2023-12-20T00:35:18;101715.66;;;15.95;55.67
59190;BME280;50749;51.636;4.948;2023-12-20T00:37:44;101717.56;;;15.95;55.71
59190;BME280;50749;51.636;4.948;2023-12-20T00:40:10;101719.53;;;15.94;55.85
59190;BME280;50749;51.636;4.948;2023-12-20T00:42:36;101707.69;;;15.94;55.72
59190;BME280;50749;51.636;4.948;2023-12-20T00:45:03;101705.25;;;15.92;55.72
59190;BME280;50749;51.636;4.948;2023-12-20T00:47:30;101698.91;;;15.92;55.59
59190;BME280;50749;51.636;4.948;2023-12-20T00:49:57;101701.66;;;15.92;55.36
59190;BME280;50749;51.636;4.948;2023-12-20T00:52:23;101703.78;;;15.86;55.58
59190;BME280;50749;51.636;4.948;2023-12-20T00:54:49;101704.91;;;15.85;55.61
59190;BME280;50749;51.636;4.948;2023-12-20T00:57:15;101709.78;;;15.88;55.75
59190;BME280;50749;51.636;4.948;2023-12-20T00:59:41;101710.41;;;15.85;55.62
59190;BME280;50749;51.636;4.948;2023-12-20T01:02:06;101700.84;;;15.83;55.64
59190;BME280;50749;51.636;4.948;2023-12-20T01:04:32;101692.59;;;15.83;55.95
59190;BME280;50749;51.636;4.948;2023-12-20T01:06:58;101698.41;;;15.81;55.88
59190;BME280;50749;51.636;4.948;2023-12-20T01:09:24;101697.94;;;15.79;55.91
59190;BME280;50749;51.636;4.948;2023-12-20T01:11:52;101700.06;;;15.82;55.32
59190;BME280;50749;51.636;4.948;2023-12-20T01:14:19;101701.97;;;15.82;55.52
59190;BME280;50749;51.636;4.948;2023-12-20T01:16:44;101709.44;;;15.81;55.87
59190;BME280;50749;51.636;4.948;2023-12-20T01:19:10;101709.44;;;15.81;55.66
59190;BME280;50749;51.636;4.948;2023-12-20T01:21:36;101704.09;;;15.76;55.01
59190;BME280;50749;51.636;4.948;2023-12-20T01:24:02;101698.88;;;15.74;55.41
59190;BME280;50749;51.636;4.948;2023-12-20T01:26:28;101699.19;;;15.73;55.49
59190;BME280;50749;51.636;4.948;2023-12-20T01:28:53;101705.03;;;15.71;55.56
59190;BME280;50749;51.636;4.948;2023-12-20T01:31:19;101708.63;;;15.72;55.65
59190;BME280;50749;51.636;4.948;2023-12-20T01:33:45;101709.91;;;15.74;54.87
59190;BME280;50749;51.636;4.948;2023-12-20T01:36:11;101703.41;;;15.70;54.94
59190;BME280;50749;51.636;4.948;2023-12-20T01:38:37;101706.50;;;15.69;55.71
59190;BME280;50749;51.636;4.948;2023-12-20T01:41:03;101700.16;;;15.68;55.87
59190;BME280;50749;51.636;4.948;2023-12-20T01:43:29;101693.50;;;15.60;56.04
59190;BME280;50749;51.636;4.948;2023-12-20T01:45:58;101704.38;;;15.66;55.90
59190;BME280;50749;51.636;4.948;2023-12-20T01:48:25;101703.88;;;15.64;55.81
59190;BME280;50749;51.636;4.948;2023-12-20T01:50:53;101700.31;;;15.63;55.40
59190;BME280;50749;51.636;4.948;2023-12-20T01:53:21;101697.53;;;15.63;55.93
59190;BME280;50749;51.636;4.948;2023-12-20T01:55:50;101695.09;;;15.61;55.50
59190;BME280;50749;51.636;4.948;2023-12-20T01:58:18;101705.81;;;15.63;55.70
59190;BME280;50749;51.636;4.948;2023-12-20T02:00:44;101696.75;;;15.63;55.69
59190;BME280;50749;51.636;4.948;2023-12-20T02:03:11;101705.81;;;15.63;55.71
59190;BME280;50749;51.636;4.948;2023-12-20T02:05:37;101715.22;;;15.62;55.22
59190;BME280;50749;51.636;4.948;2023-12-20T02:08:04;101710.03;;;15.60;55.42
59190;BME280;50749;51.636;4.948;2023-12-20T02:10:31;101703.84;;;15.55;55.26
59190;BME280;50749;51.636;4.948;2023-12-20T02:12:57;101712.63;;;15.57;55.70
59190;BME280;50749;51.636;4.948;2023-12-20T02:15:24;101705.97;;;15.58;55.62
59190;BME280;50749;51.636;4.948;2023-12-20T02:17:50;101704.19;;;15.53;55.45
59190;BME280;50749;51.636;4.948;2023-12-20T02:20:16;101703.03;;;15.54;55.45
59190;BME280;50749;51.636;4.948;2023-12-20T02:22:42;101695.41;;;15.51;55.42
59190;BME280;50749;51.636;4.948;2023-12-20T02:25:07;101701.75;;;15.52;55.49
59190;BME280;50749;51.636;4.948;2023-12-20T02:27:34;101698.31;;;15.46;55.46
59190;BME280;50749;51.636;4.948;2023-12-20T02:30:00;101703.19;;;15.49;55.58
59190;BME280;50749;51.636;4.948;2023-12-20T02:32:26;101699.63;;;15.49;55.01
59190;BME280;50749;51.636;4.948;2023-12-20T02:34:54;101707.75;;;15.45;55.46
59190;BME280;50749;51.636;4.948;2023-12-20T02:37:20;101703.84;;;15.46;55.52
59190;BME280;50749;51.636;4.948;2023-12-20T02:39:46;101699.47;;;15.45;55.62
59190;BME280;50749;51.636;4.948;2023-12-20T02:42:12;101696.50;;;15.41;55.42
59190;BME280;50749;51.636;4.948;2023-12-20T02:44:37;101702.53;;;15.44;55.86
59190;BME280;50749;51.636;4.948;2023-12-20T02:47:03;101697.03;;;15.44;55.27
59190;BME280;50749;51.636;4.948;2023-12-20T02:49:29;101702.03;;;15.41;55.54
59190;BME280;50749;51.636;4.948;2023-12-20T02:51:55;101701.84;;;15.38;55.68
59190;BME280;50749;51.636;4.948;2023-12-20T02:54:20;101705.94;;;15.40;55.43
59190;BME280;50749;51.636;4.948;2023-12-20T02:56:47;101690.03;;;15.37;55.99
59190;BME280;50749;51.636;4.948;2023-12-20T02:59:13;101687.28;;;15.37;55.83
59190;BME280;50749;51.636;4.948;2023-12-20T03:01:43;101684.84;;;15.36;55.72
59190;BME280;50749;51.636;4.948;2023-12-20T03:04:09;101684.53;;;15.37;55.46
59190;BME280;50749;51.636;4.948;2023-12-20T03:06:35;101689.22;;;15.37;55.38
59190;BME280;50749;51.636;4.948;2023-12-20T03:09:01;101680.97;;;15.37;55.83
59190;BME280;50749;51.636;4.948;2023-12-20T03:11:27;101679.00;;;15.37;55.37
59190;BME280;50749;51.636;4.948;2023-12-20T03:13:54;101677.72;;;15.35;55.41
59190;BME280;50749;51.636;4.948;2023-12-20T03:16:20;101673.34;;;15.34;55.51
59190;BME280;50749;51.636;4.948;2023-12-20T03:18:46;101671.69;;;15.33;55.48
59190;BME280;50749;51.636;4.948;2023-12-20T03:21:12;101671.53;;;15.29;55.45
59190;BME280;50749;51.636;4.948;2023-12-20T03:23:37;101668.47;;;15.31;55.76
59190;BME280;50749;51.636;4.948;2023-12-20T03:26:06;101662.16;;;15.30;55.68
59190;BME280;50749;51.636;4.948;2023-12-20T03:28:32;101668.47;;;15.31;55.55
59190;BME280;50749;51.636;4.948;2023-12-20T03:30:58;101653.19;;;15.24;55.68
59190;BME280;50749;51.636;4.948;2023-12-20T03:33:24;101661.31;;;15.30;55.41
59190;BME280;50749;51.636;4.948;2023-12-20T03:35:49;101666.03;;;15.29;55.48
59190;BME280;50749;51.636;4.948;2023-12-20T03:38:15;101661.66;;;15.28;55.18
59190;BME280;50749;51.636;4.948;2023-12-20T03:40:41;101661.97;;;15.27;55.48
59190;BME280;50749;51.636;4.948;2023-12-20T03:43:09;101660.34;;;15.26;55.16
59190;BME280;50749;51.636;4.948;2023-12-20T03:45:35;101657.09;;;15.23;55.51
59190;BME280;50749;51.636;4.948;2023-12-20T03:48:01;101676.25;;;15.29;55.73
59190;BME280;50749;51.636;4.948;2023-12-20T03:50:27;101660.84;;;15.28;55.37
59190;BME280;50749;51.636;4.948;2023-12-20T03:52:53;101664.72;;;15.27;55.51
59190;BME280;50749;51.636;4.948;2023-12-20T03:55:18;101665.22;;;15.29;55.33
59190;BME280;50749;51.636;4.948;2023-12-20T03:57:44;101668.78;;;15.29;55.80
59190;BME280;50749;51.636;4.948;2023-12-20T04:00:10;101661.31;;;15.30;55.61
59190;BME280;50749;51.636;4.948;2023-12-20T04:02:39;101665.06;;;15.34;55.61
59190;BME280;50749;51.636;4.948;2023-12-20T04:05:06;101670.91;;;15.41;55.90
59190;BME280;50749;51.636;4.948;2023-12-20T04:07:32;101665.25;;;15.46;56.09
59190;BME280;50749;51.636;4.948;2023-12-20T04:09:58;101660.75;;;15.50;56.18
59190;BME280;50749;51.636;4.948;2023-12-20T04:12:24;101661.38;;;15.56;56.46
59190;BME280;50749;51.636;4.948;2023-12-20T04:14:50;101667.53;;;15.61;56.43
59190;BME280;50749;51.636;4.948;2023-12-20T04:17:16;101669.81;;;15.68;56.43
59190;BME280;50749;51.636;4.948;2023-12-20T04:19:42;101684.28;;;15.74;56.89
59190;BME280;50749;51.636;4.948;2023-12-20T04:22:08;101669.22;;;15.80;56.76
59190;BME280;50749;51.636;4.948;2023-12-20T04:24:34;101673.44;;;15.86;57.00
59190;BME280;50749;51.636;4.948;2023-12-20T04:27:00;101680.75;;;15.91;56.56
59190;BME280;50749;51.636;4.948;2023-12-20T04:29:27;101686.13;;;15.96;56.54
59190;BME280;50749;51.636;4.948;2023-12-20T04:31:52;101671.69;;;15.99;56.76
59190;BME280;50749;51.636;4.948;2023-12-20T04:34:18;101675.06;;;16.05;56.78
59190;BME280;50749;51.636;4.948;2023-12-20T04:36:44;101665.03;;;16.09;56.49
59190;BME280;50749;51.636;4.948;2023-12-20T04:39:14;101654.94;;;16.13;56.68
59190;BME280;50749;51.636;4.948;2023-12-20T04:41:40;101673.28;;;16.18;56.27
59190;BME280;50749;51.636;4.948;2023-12-20T04:44:06;101666.28;;;16.20;56.21
59190;BME280;50749;51.636;4.948;2023-12-20T04:46:32;101666.44;;;16.24;56.43
59190;BME280;50749;51.636;4.948;2023-12-20T04:48:58;101668.56;;;16.27;56.17
59190;BME280;50749;51.636;4.948;2023-12-20T04:51:23;101673.75;;;16.28;56.42
59190;BME280;50749;51.636;4.948;2023-12-20T04:53:49;101667.59;;;16.31;56.57
59190;BME280;50749;51.636;4.948;2023-12-20T04:56:15;101664.97;;;16.35;56.53
59190;BME280;50749;51.636;4.948;2023-12-20T04:58:42;101652.16;;;16.39;56.15
59190;BME280;50749;51.636;4.948;2023-12-20T05:01:08;101651.50;;;16.42;56.46
59190;BME280;50749;51.636;4.948;2023-12-20T05:03:35;101646.16;;;16.46;56.54
59190;BME280;50749;51.636;4.948;2023-12-20T05:06:01;101634.44;;;16.49;55.99
59190;BME280;50749;51.636;4.948;2023-12-20T05:08:27;101639.28;;;16.52;55.98
59190;BME280;50749;51.636;4.948;2023-12-20T05:10:54;101633.94;;;16.56;56.26
59190;BME280;50749;51.636;4.948;2023-12-20T05:13:20;101630.84;;;16.57;56.31
59190;BME280;50749;51.636;4.948;2023-12-20T05:15:46;101629.38;;;16.60;56.32
59190;BME280;50749;51.636;4.948;2023-12-20T05:18:12;101636.19;;;16.62;56.07
59190;BME280;50749;51.636;4.948;2023-12-20T05:20:38;101637.47;;;16.65;55.98
59190;BME280;50749;51.636;4.948;2023-12-20T05:23:04;101641.53;;;16.67;55.93
59190;BME280;50749;51.636;4.948;2023-12-20T05:25:30;101636.50;;;16.69;55.92
59190;BME280;50749;51.636;4.948;2023-12-20T05:27:56;101633.41;;;16.71;55.97
59190;BME280;50749;51.636;4.948;2023-12-20T05:30:22;101635.00;;;16.72;55.96
59190;BME280;50749;51.636;4.948;2023-12-20T05:32:48;101650.13;;;16.75;56.05
59190;BME280;50749;51.636;4.948;2023-12-20T05:35:13;101648.97;;;16.76;55.99
59190;BME280;50749;51.636;4.948;2023-12-20T05:37:41;101651.41;;;16.77;56.33
59190;BME280;50749;51.636;4.948;2023-12-20T05:40:07;101649.13;;;16.79;55.84
59190;BME280;50749;51.636;4.948;2023-12-20T05:42:36;101650.75;;;16.80;55.71
59190;BME280;50749;51.636;4.948;2023-12-20T05:45:04;101646.53;;;16.83;55.68
59190;BME280;50749;51.636;4.948;2023-12-20T05:47:30;101640.66;;;16.84;55.69
59190;BME280;50749;51.636;4.948;2023-12-20T05:49:56;101649.13;;;16.88;55.57
59190;BME280;50749;51.636;4.948;2023-12-20T05:52:22;101652.84;;;16.92;54.79
59190;BME280;50749;51.636;4.948;2023-12-20T05:54:47;101647.78;;;16.94;54.72
59190;BME280;50749;51.636;4.948;2023-12-20T05:57:13;101654.94;;;16.95;55.18
59190;BME280;50749;51.636;4.948;2023-12-20T05:59:39;101658.19;;;16.97;55.10
59190;BME280;50749;51.636;4.948;2023-12-20T06:02:05;101652.78;;;17.01;54.95
59190;BME280;50749;51.636;4.948;2023-12-20T06:04:31;101648.09;;;17.01;55.17
59190;BME280;50749;51.636;4.948;2023-12-20T06:06:57;101648.56;;;17.03;55.03
59190;BME280;50749;51.636;4.948;2023-12-20T06:09:22;101648.56;;;17.03;55.21
59190;BME280;50749;51.636;4.948;2023-12-20T06:11:48;101652.13;;;17.04;55.11
59190;BME280;50749;51.636;4.948;2023-12-20T06:14:14;101651.34;;;17.03;55.12
59190;BME280;50749;51.636;4.948;2023-12-20T06:16:40;101659.44;;;17.08;56.19
59190;BME280;50749;51.636;4.948;2023-12-20T06:19:05;101651.16;;;17.08;55.81
59190;BME280;50749;51.636;4.948;2023-12-20T06:21:31;101662.66;;;17.11;57.05
59190;BME280;50749;51.636;4.948;2023-12-20T06:23:59;101651.94;;;17.09;56.22
59190;BME280;50749;51.636;4.948;2023-12-20T06:26:25;101659.63;;;17.03;55.00
59190;BME280;50749;51.636;4.948;2023-12-20T06:28:50;101663.88;;;16.92;54.25
59190;BME280;50749;51.636;4.948;2023-12-20T06:31:16;101657.56;;;16.92;55.16
59190;BME280;50749;51.636;4.948;2023-12-20T06:33:43;101669.13;;;16.85;54.04
59190;BME280;50749;51.636;4.948;2023-12-20T06:36:13;101667.31;;;16.80;53.19
59190;BME280;50749;51.636;4.948;2023-12-20T06:38:39;101672.22;;;16.75;52.88
59190;BME280;50749;51.636;4.948;2023-12-20T06:41:05;101658.25;;;16.71;52.84
59190;BME280;50749;51.636;4.948;2023-12-20T06:43:31;101658.91;;;16.68;52.53
59190;BME280;50749;51.636;4.948;2023-12-20T06:45:58;101649.97;;;16.71;54.08
59190;BME280;50749;51.636;4.948;2023-12-20T06:48:24;101647.50;;;16.78;54.97
59190;BME280;50749;51.636;4.948;2023-12-20T06:50:50;101660.34;;;16.83;55.43
59190;BME280;50749;51.636;4.948;2023-12-20T06:53:15;101654.31;;;16.89;55.08
59190;BME280;50749;51.636;4.948;2023-12-20T06:55:42;101657.22;;;16.93;55.17
59190;BME280;50749;51.636;4.948;2023-12-20T06:58:07;101653.78;;;16.96;55.15
59190;BME280;50749;51.636;4.948;2023-12-20T07:00:34;101664.00;;;17.04;55.91
59190;BME280;50749;51.636;4.948;2023-12-20T07:03:00;101668.72;;;17.04;55.38
59190;BME280;50749;51.636;4.948;2023-12-20T07:05:26;101652.94;;;17.04;55.25
59190;BME280;50749;51.636;4.948;2023-12-20T07:07:52;101662.06;;;17.05;55.04
59190;BME280;50749;51.636;4.948;2023-12-20T07:10:18;101649.03;;;17.05;54.48
59190;BME280;50749;51.636;4.948;2023-12-20T07:12:44;101643.53;;;17.05;54.56
59190;BME280;50749;51.636;4.948;2023-12-20T07:15:10;101651.00;;;17.05;54.80
59190;BME280;50749;51.636;4.948;2023-12-20T07:17:36;101655.69;;;17.04;54.26
59190;BME280;50749;51.636;4.948;2023-12-20T07:20:02;101646.28;;;17.05;54.12
59190;BME280;50749;51.636;4.948;2023-12-20T07:22:32;101646.63;;;17.04;54.44
59190;BME280;50749;51.636;4.948;2023-12-20T07:24:58;101650.16;;;17.04;54.18
59190;BME280;50749;51.636;4.948;2023-12-20T07:27:24;101650.16;;;17.04;54.43
59190;BME280;50749;51.636;4.948;2023-12-20T07:29:50;101652.59;;;17.06;55.26
59190;BME280;50749;51.636;4.948;2023-12-20T07:32:16;101645.47;;;17.05;53.88
59190;BME280;50749;51.636;4.948;2023-12-20T07:34:41;101646.94;;;17.02;53.93
59190;BME280;50749;51.636;4.948;2023-12-20T07:37:07;101643.72;;;17.00;53.28
59190;BME280;50749;51.636;4.948;2023-12-20T07:39:36;101635.75;;;16.99;53.29
59190;BME280;50749;51.636;4.948;2023-12-20T07:42:01;101642.72;;;16.96;53.08
59190;BME280;50749;51.636;4.948;2023-12-20T07:44:27;101640.34;;;16.95;53.11
59190;BME280;50749;51.636;4.948;2023-12-20T07:46:52;101644.56;;;16.92;52.66
59190;BME280;50749;51.636;4.948;2023-12-20T07:49:19;101642.13;;;16.90;52.18
59190;BME280;50749;51.636;4.948;2023-12-20T07:51:45;101641.66;;;16.88;52.57
59190;BME280;50749;51.636;4.948;2023-12-20T07:54:10;101638.41;;;16.86;52.44
59190;BME280;50749;51.636;4.948;2023-12-20T07:56:36;101638.91;;;16.80;52.31
59190;BME280;50749;51.636;4.948;2023-12-20T07:59:02;101638.91;;;16.80;52.29
59190;BME280;50749;51.636;4.948;2023-12-20T08:01:28;101640.69;;;16.76;52.21
59190;BME280;50749;51.636;4.948;2023-12-20T08:03:53;101650.44;;;16.73;52.20
59190;BME280;50749;51.636;4.948;2023-12-20T08:06:19;101648.03;;;16.71;52.29
59190;BME280;50749;51.636;4.948;2023-12-20T08:08:45;101644.78;;;16.69;52.40
59190;BME280;50749;51.636;4.948;2023-12-20T08:11:11;101645.13;;;16.68;52.38
59190;BME280;50749;51.636;4.948;2023-12-20T08:13:36;101647.03;;;16.67;52.15
59190;BME280;50749;51.636;4.948;2023-12-20T08:16:02;101653.25;;;16.64;52.46
59190;BME280;50749;51.636;4.948;2023-12-20T08:18:28;101647.22;;;16.62;52.15
59190;BME280;50749;51.636;4.948;2023-12-20T08:20:54;101649.50;;;16.60;52.08
59190;BME280;50749;51.636;4.948;2023-12-20T08:23:20;101653.75;;;16.58;51.95
59190;BME280;50749;51.636;4.948;2023-12-20T08:25:49;101659.59;;;16.56;52.06
59190;BME280;50749;51.636;4.948;2023-12-20T08:28:15;101659.09;;;16.54;51.98
59190;BME280;50749;51.636;4.948;2023-12-20T08:30:41;101659.09;;;16.54;52.17
59190;BME280;50749;51.636;4.948;2023-12-20T08:33:07;101658.63;;;16.52;52.16
59190;BME280;50749;51.636;4.948;2023-12-20T08:35:36;101660.91;;;16.50;52.24
59190;BME280;50749;51.636;4.948;2023-12-20T08:38:02;101668.06;;;16.51;52.09
59190;BME280;50749;51.636;4.948;2023-12-20T08:40:29;101662.03;;;16.49;52.44
59190;BME280;50749;51.636;4.948;2023-12-20T08:42:55;101660.44;;;16.48;52.76
59190;BME280;50749;51.636;4.948;2023-12-20T08:45:21;101654.91;;;16.48;52.87
59190;BME280;50749;51.636;4.948;2023-12-20T08:47:47;101646.47;;;16.44;52.74
59190;BME280;50749;51.636;4.948;2023-12-20T08:50:12;101648.41;;;16.44;52.78
59190;BME280;50749;51.636;4.948;2023-12-20T08:52:39;101648.25;;;16.40;52.78
59190;BME280;50749;51.636;4.948;2023-12-20T08:55:04;101646.66;;;16.39;52.40
59190;BME280;50749;51.636;4.948;2023-12-20T08:57:31;101645.34;;;16.37;52.67
59190;BME280;50749;51.636;4.948;2023-12-20T08:59:57;101658.00;;;16.38;52.50
59190;BME280;50749;51.636;4.948;2023-12-20T09:02:23;101659.78;;;16.33;52.37
59190;BME280;50749;51.636;4.948;2023-12-20T09:04:49;101660.63;;;16.34;52.44
59190;BME280;50749;51.636;4.948;2023-12-20T09:07:25;101657.19;;;16.28;52.41
59190;BME280;50749;51.636;4.948;2023-12-20T09:09:51;101660.75;;;16.29;52.36
59190;BME280;50749;51.636;4.948;2023-12-20T09:12:20;101659.16;;;16.28;52.54
59190;BME280;50749;51.636;4.948;2023-12-20T09:14:47;101653.16;;;16.26;52.49
59190;BME280;50749;51.636;4.948;2023-12-20T09:17:13;101657.06;;;16.25;52.52
59190;BME280;50749;51.636;4.948;2023-12-20T09:19:39;101654.13;;;16.21;52.24
59190;BME280;50749;51.636;4.948;2023-12-20T09:22:05;101655.25;;;16.20;52.63
59190;BME280;50749;51.636;4.948;2023-12-20T09:24:31;101653.66;;;16.19;52.24
59190;BME280;50749;51.636;4.948;2023-12-20T09:26:57;101646.50;;;16.18;52.66
59190;BME280;50749;51.636;4.948;2023-12-20T09:29:23;101644.06;;;16.16;52.74
59190;BME280;50749;51.636;4.948;2023-12-20T09:31:50;101633.69;;;16.13;52.33
59190;BME280;50749;51.636;4.948;2023-12-20T09:34:16;101629.00;;;16.14;52.33
59190;BME280;50749;51.636;4.948;2023-12-20T09:36:43;101645.03;;;16.12;52.56
59190;BME280;50749;51.636;4.948;2023-12-20T09:39:14;101644.56;;;16.10;52.48
59190;BME280;50749;51.636;4.948;2023-12-20T09:41:43;101639.84;;;16.10;52.65
59190;BME280;50749;51.636;4.948;2023-12-20T09:44:14;101642.97;;;16.09;52.66
59190;BME280;50749;51.636;4.948;2023-12-20T09:46:44;101643.75;;;16.09;52.76
59190;BME280;50749;51.636;4.948;2023-12-20T09:49:12;101644.09;;;16.08;52.33
59190;BME280;50749;51.636;4.948;2023-12-20T09:51:39;101651.56;;;16.07;52.54
59190;BME280;50749;51.636;4.948;2023-12-20T09:54:06;101646.38;;;16.06;52.59
59190;BME280;50749;51.636;4.948;2023-12-20T09:56:31;101648.28;;;16.05;52.50
59190;BME280;50749;51.636;4.948;2023-12-20T09:58:59;101656.88;;;16.04;52.49
59190;BME280;50749;51.636;4.948;2023-12-20T10:01:25;101654.13;;;16.04;52.60
59190;BME280;50749;51.636;4.948;2023-12-20T10:03:54;101652.22;;;16.04;52.83
59190;BME280;50749;51.636;4.948;2023-12-20T10:06:21;101650.91;;;16.02;53.22
59190;BME280;50749;51.636;4.948;2023-12-20T10:08:46;101640.19;;;16.00;52.32
59190;BME280;50749;51.636;4.948;2023-12-20T10:11:13;101654.66;;;15.97;52.06
59190;BME280;50749;51.636;4.948;2023-12-20T10:13:42;101657.72;;;15.95;52.29
59190;BME280;50749;51.636;4.948;2023-12-20T10:16:09;101652.53;;;15.94;52.45
59190;BME280;50749;51.636;4.948;2023-12-20T10:18:34;101644.59;;;15.92;52.02
59190;BME280;50749;51.636;4.948;2023-12-20T10:21:01;101651.22;;;15.91;52.11
59190;BME280;50749;51.636;4.948;2023-12-20T10:23:29;101643.59;;;15.88;52.17
59190;BME280;50749;51.636;4.948;2023-12-20T10:25:58;101634.19;;;15.89;52.48
59190;BME280;50749;51.636;4.948;2023-12-20T10:28:25;101631.44;;;15.89;52.49
59190;BME280;50749;51.636;4.948;2023-12-20T10:30:54;101645.56;;;15.88;52.17
59190;BME280;50749;51.636;4.948;2023-12-20T10:33:28;101632.56;;;15.88;52.36
59190;BME280;50749;51.636;4.948;2023-12-20T10:35:55;101644.75;;;15.87;52.58
59190;BME280;50749;51.636;4.948;2023-12-20T10:38:21;101632.88;;;15.87;52.53
59190;BME280;50749;51.636;4.948;2023-12-20T10:40:47;101629.31;;;15.86;52.38
59190;BME280;50749;51.636;4.948;2023-12-20T10:43:14;101637.94;;;15.85;52.68
59190;BME280;50749;51.636;4.948;2023-12-20T10:45:42;101622.19;;;15.85;52.67
59190;BME280;50749;51.636;4.948;2023-12-20T10:48:10;101613.44;;;15.83;52.53
59190;BME280;50749;51.636;4.948;2023-12-20T10:50:38;101625.28;;;15.84;52.62
59190;BME280;50749;51.636;4.948;2023-12-20T10:53:04;101611.50;;;15.84;52.76
59190;BME280;50749;51.636;4.948;2023-12-20T10:55:30;101590.91;;;15.81;52.64
59190;BME280;50749;51.636;4.948;2023-12-20T10:58:01;101604.69;;;15.81;52.82
59190;BME280;50749;51.636;4.948;2023-12-20T11:00:31;101607.13;;;15.83;52.60
59190;BME280;50749;51.636;4.948;2023-12-20T11:03:00;101601.44;;;15.79;52.64
59190;BME280;50749;51.636;4.948;2023-12-20T11:05:48;101595.13;;;15.78;52.75
59190;BME280;50749;51.636;4.948;2023-12-20T11:08:30;101612.78;;;15.77;52.93
59190;BME280;50749;51.636;4.948;2023-12-20T11:13:57;101605.66;;;15.76;52.71
59190;BME280;50749;51.636;4.948;2023-12-20T11:16:24;101591.06;;;15.76;52.81
59190;BME280;50749;51.636;4.948;2023-12-20T11:18:51;101592.69;;;15.77;52.96
59190;BME280;50749;51.636;4.948;2023-12-20T11:21:17;101587.50;;;15.75;53.17
59190;BME280;50749;51.636;4.948;2023-12-20T11:23:42;101591.06;;;15.76;53.66
59190;BME280;50749;51.636;4.948;2023-12-20T11:26:08;101599.34;;;15.76;53.57
59190;BME280;50749;51.636;4.948;2023-12-20T11:28:34;101598.53;;;15.75;54.25
59190;BME280;50749;51.636;4.948;2023-12-20T11:31:01;101587.19;;;15.77;53.95
59190;BME280;50749;51.636;4.948;2023-12-20T11:33:37;101584.75;;;15.75;53.71
59190;BME280;50749;51.636;4.948;2023-12-20T11:36:07;101588.31;;;15.76;53.89
59190;BME280;50749;51.636;4.948;2023-12-20T11:38:37;101588.31;;;15.76;54.18
59190;BME280;50749;51.636;4.948;2023-12-20T11:41:06;101582.78;;;15.76;54.26
59190;BME280;50749;51.636;4.948;2023-12-20T11:46:07;101587.19;;;15.77;54.44
59190;BME280;50749;51.636;4.948;2023-12-20T11:48:36;101576.16;;;15.77;54.45
59190;BME280;50749;51.636;4.948;2023-12-20T11:51:08;101576.16;;;15.77;54.66
59190;BME280;50749;51.636;4.948;2023-12-20T11:53:34;101564.28;;;15.76;54.65
59190;BME280;50749;51.636;4.948;2023-12-20T11:56:00;101560.41;;;15.77;54.68
59190;BME280;50749;51.636;4.948;2023-12-20T11:58:28;101554.91;;;15.77;54.61
59190;BME280;50749;51.636;4.948;2023-12-20T12:00:55;101562.69;;;15.75;54.57
59190;BME280;50749;51.636;4.948;2023-12-20T12:03:20;101558.47;;;15.78;54.74
59190;BME280;50749;51.636;4.948;2023-12-20T12:05:50;101554.09;;;15.77;54.89
59190;BME280;50749;51.636;4.948;2023-12-20T12:08:16;101551.34;;;15.77;54.64
59190;BME280;50749;51.636;4.948;2023-12-20T12:10:46;101543.88;;;15.77;54.61
59190;BME280;50749;51.636;4.948;2023-12-20T12:13:12;101545.81;;;15.77;54.54
59190;BME280;50749;51.636;4.948;2023-12-20T12:15:39;101553.78;;;15.78;54.70
59190;BME280;50749;51.636;4.948;2023-12-20T12:18:07;101547.44;;;15.78;54.56
59190;BME280;50749;51.636;4.948;2023-12-20T12:20:33;101539.16;;;15.78;54.46
59190;BME280;50749;51.636;4.948;2023-12-20T12:23:04;101551.00;;;15.78;54.67
59190;BME280;50749;51.636;4.948;2023-12-20T12:25:31;101550.19;;;15.78;54.83
59190;BME280;50749;51.636;4.948;2023-12-20T12:27:58;101540.47;;;15.81;56.02
59190;BME280;50749;51.636;4.948;2023-12-20T12:30:24;101525.38;;;15.78;54.86
59190;BME280;50749;51.636;4.948;2023-12-20T12:32:53;101535.59;;;15.77;54.91
59190;BME280;50749;51.636;4.948;2023-12-20T12:35:19;101522.63;;;15.78;55.05
59190;BME280;50749;51.636;4.948;2023-12-20T12:37:45;101525.84;;;15.80;54.91
59190;BME280;50749;51.636;4.948;2023-12-20T12:40:16;101524.25;;;15.79;55.04
59190;BME280;50749;51.636;4.948;2023-12-20T12:42:44;101527.34;;;15.77;54.84
59190;BME280;50749;51.636;4.948;2023-12-20T12:45:10;101528.13;;;15.78;54.92
59190;BME280;50749;51.636;4.948;2023-12-20T12:47:40;101519.53;;;15.79;55.00
59190;BME280;50749;51.636;4.948;2023-12-20T12:50:06;101510.78;;;15.77;55.41
59190;BME280;50749;51.636;4.948;2023-12-20T12:52:32;101512.41;;;15.78;55.46